createdAt,value
2023-03-01T00:00:08.365Z,70.11
2023-03-01T00:02:37.225Z,70.16
2023-03-01T00:05:04.533Z,70.34
2023-03-01T00:07:31.467Z,70.15
2023-03-01T00:09:58.006Z,70.19
2023-03-01T00:12:24.439Z,70.38
2023-03-01T00:14:51.998Z,70.39
2023-03-01T00:17:18.536Z,70.24
2023-03-01T00:19:45.280Z,70.28
2023-03-01T00:22:12.435Z,70.35
2023-03-01T00:24:38.650Z,70.40
2023-03-01T00:27:06.756Z,70.27
2023-03-01T00:29:33.204Z,70.23
2023-03-01T00:32:00.840Z,70.29
2023-03-01T00:34:27.488Z,70.17
2023-03-01T00:36:54.590Z,70.22
2023-03-01T00:39:20.992Z,70.35
2023-03-01T00:41:47.541Z,70.43
2023-03-01T00:44:14.534Z,70.41
2023-03-01T00:46:41.218Z,70.31
2023-03-01T00:49:07.776Z,70.28
2023-03-01T00:51:36.000Z,70.42
2023-03-01T00:54:03.677Z,70.50
2023-03-01T00:56:32.273Z,70.50
2023-03-01T00:58:59.273Z,70.62
2023-03-01T01:01:30.174Z,70.65
2023-03-01T01:04:07.459Z,70.71
2023-03-01T01:06:37.618Z,70.58
2023-03-01T01:09:07.232Z,70.66
2023-03-01T01:11:36.689Z,70.53
2023-03-01T01:14:03.736Z,70.47
2023-03-01T01:16:32.217Z,70.57
2023-03-01T01:18:59.419Z,70.46
2023-03-01T01:21:27.830Z,70.61
2023-03-01T01:23:54.442Z,70.73
2023-03-01T01:26:25.407Z,70.77
2023-03-01T01:28:52.258Z,70.69
2023-03-01T01:31:20.404Z,70.84
2023-03-01T01:33:47.664Z,70.84
2023-03-01T01:36:14.099Z,70.91
2023-03-01T01:38:43.111Z,70.92
2023-03-01T01:41:14.765Z,70.91
2023-03-01T01:44:03.031Z,71.03
2023-03-01T01:46:35.598Z,70.89
2023-03-01T01:49:18.421Z,70.83
2023-03-01T01:51:49.664Z,70.87
2023-03-01T01:54:50.973Z,70.94
2023-03-01T01:57:23.515Z,70.83
2023-03-01T01:59:56.094Z,70.98
2023-03-01T02:05:27.851Z,70.96
2023-03-01T02:07:56.440Z,70.91
2023-03-01T02:10:24.876Z,70.96
2023-03-01T02:12:53.574Z,71.11
2023-03-01T02:15:20.254Z,70.90
2023-03-01T02:17:46.645Z,70.95
2023-03-01T02:20:40.284Z,70.70
2023-03-01T02:23:08.508Z,70.72
2023-03-01T02:26:01.241Z,70.70
2023-03-01T02:28:32.820Z,70.42
2023-03-01T02:31:21.470Z,70.68
2023-03-01T02:33:51.799Z,70.43
2023-03-01T02:36:26.829Z,70.53
2023-03-01T02:38:57.300Z,70.57
2023-03-01T02:41:27.085Z,70.55
2023-03-01T02:43:53.943Z,70.35
2023-03-01T02:46:23.761Z,70.32
2023-03-01T02:48:53.105Z,70.28
2023-03-01T02:51:54.991Z,70.23
2023-03-01T02:54:30.532Z,70.39
2023-03-01T02:56:58.865Z,70.51
2023-03-01T02:59:34.378Z,70.37
2023-03-01T03:02:02.915Z,70.25
2023-03-01T03:04:29.738Z,70.27
2023-03-01T03:06:55.900Z,70.25
2023-03-01T03:09:23.006Z,70.14
2023-03-01T03:11:49.890Z,70.13
2023-03-01T03:14:17.614Z,70.18
2023-03-01T03:16:47.235Z,70.09
2023-03-01T03:19:17.354Z,70.08
2023-03-01T03:21:43.935Z,70.11
2023-03-01T03:24:10.378Z,69.74
2023-03-01T03:26:38.073Z,69.91
2023-03-01T03:29:04.650Z,69.90
2023-03-01T03:31:31.407Z,69.70
2023-03-01T03:33:59.600Z,69.90
2023-03-01T03:36:26.518Z,69.97
2023-03-01T03:38:55.942Z,69.97
2023-03-01T03:41:22.702Z,70.03
2023-03-01T03:43:49.555Z,70.06
2023-03-01T03:46:18.478Z,70.07
2023-03-01T03:48:46.464Z,69.97
2023-03-01T03:51:15.121Z,70.07
2023-03-01T03:53:43.752Z,69.94
2023-03-01T03:56:10.902Z,70.00
2023-03-01T03:58:37.817Z,70.00
2023-03-01T04:01:04.899Z,70.13
2023-03-01T04:03:33.114Z,70.05
2023-03-01T04:06:00.678Z,70.06
2023-03-01T04:08:28.835Z,69.80
2023-03-01T04:11:21.567Z,69.88
2023-03-01T04:13:48.294Z,69.95
2023-03-01T04:16:14.573Z,70.12
2023-03-01T04:18:40.869Z,70.16
2023-03-01T04:21:07.777Z,70.23
2023-03-01T04:23:34.545Z,70.31
2023-03-01T04:26:00.880Z,70.11
2023-03-01T04:28:37.232Z,70.10
2023-03-01T04:31:33.252Z,70.19
2023-03-01T04:34:00.932Z,70.01
2023-03-01T04:36:29.596Z,69.91
2023-03-01T04:38:56.712Z,70.11
2023-03-01T04:41:25.103Z,69.95
2023-03-01T04:43:52.593Z,70.03
2023-03-01T04:46:21.145Z,69.97
2023-03-01T04:48:49.840Z,69.71
2023-03-01T04:51:17.394Z,69.69
2023-03-01T04:53:44.648Z,69.59
2023-03-01T04:56:11.965Z,70.06
2023-03-01T04:58:38.630Z,69.89
2023-03-01T05:01:16.676Z,69.96
2023-03-01T05:03:45.074Z,69.98
2023-03-01T05:06:12.799Z,69.83
2023-03-01T05:08:43.167Z,69.90
2023-03-01T05:11:10.551Z,69.72
2023-03-01T05:13:38.614Z,69.81
2023-03-01T05:16:07.079Z,69.69
2023-03-01T05:18:34.570Z,69.78
2023-03-01T05:21:08.144Z,69.85
2023-03-01T05:23:35.277Z,69.75
2023-03-01T05:26:05.357Z,69.80
2023-03-01T05:28:33.301Z,69.60
2023-03-01T05:31:00.486Z,69.57
2023-03-01T05:33:28.498Z,69.72
2023-03-01T05:35:55.290Z,69.64
2023-03-01T05:38:23.112Z,69.68
2023-03-01T05:40:52.469Z,69.87
2023-03-01T05:43:19.935Z,69.81
2023-03-01T05:45:46.343Z,69.55
2023-03-01T05:48:13.825Z,69.66
2023-03-01T05:50:46.748Z,69.88
2023-03-01T05:53:15.915Z,69.61
2023-03-01T05:55:43.352Z,69.96
2023-03-01T05:58:16.443Z,69.74
2023-03-01T06:00:44.672Z,69.78
2023-03-01T06:03:13.118Z,69.83
2023-03-01T06:05:41.124Z,69.72
2023-03-01T06:08:08.281Z,69.92
2023-03-01T06:10:34.788Z,69.82
2023-03-01T06:13:01.510Z,69.90
2023-03-01T06:15:28.211Z,70.11
2023-03-01T06:17:59.679Z,70.26
2023-03-01T06:20:28.555Z,70.18
2023-03-01T06:22:55.234Z,70.21
2023-03-01T06:25:24.308Z,70.50
2023-03-01T06:27:53.400Z,70.87
2023-03-01T06:30:22.951Z,71.25
2023-03-01T06:32:50.300Z,71.16
2023-03-01T06:35:18.665Z,70.97
2023-03-01T06:37:46.468Z,70.81
2023-03-01T06:40:14.446Z,70.86
2023-03-01T06:42:43.002Z,71.01
2023-03-01T06:45:10.622Z,70.84
2023-03-01T06:47:37.032Z,71.08
2023-03-01T06:50:05.327Z,70.92
2023-03-01T06:52:32.257Z,70.93
2023-03-01T06:54:58.679Z,70.92
2023-03-01T06:57:25.739Z,71.44
2023-03-01T06:59:52.262Z,71.46
2023-03-01T07:02:19.210Z,71.13
2023-03-01T07:04:46.524Z,71.48
2023-03-01T07:07:13.358Z,71.53
2023-03-01T07:09:40.774Z,72.13
2023-03-01T07:12:07.597Z,72.34
2023-03-01T07:14:37.133Z,72.57
2023-03-01T07:17:03.497Z,72.54
2023-03-01T07:19:30.109Z,73.22
2023-03-01T07:21:57.434Z,73.78
2023-03-01T07:24:23.998Z,73.89
2023-03-01T07:26:52.024Z,73.75
2023-03-01T07:29:19.315Z,73.47
2023-03-01T07:31:46.366Z,73.45
2023-03-01T07:34:13.593Z,73.25
2023-03-01T07:36:43.137Z,73.14
2023-03-01T07:39:11.214Z,72.48
2023-03-01T07:41:40.870Z,72.68
2023-03-01T07:44:09.890Z,72.48
2023-03-01T07:46:36.216Z,72.63
2023-03-01T07:49:03.175Z,72.14
2023-03-01T07:51:34.010Z,72.25
2023-03-01T07:54:01.014Z,72.51
2023-03-01T07:56:27.765Z,72.78
2023-03-01T07:58:56.711Z,72.62
2023-03-01T08:01:24.596Z,73.00
2023-03-01T08:03:51.521Z,72.90
2023-03-01T08:06:18.739Z,73.08
2023-03-01T08:08:46.459Z,73.05
2023-03-01T08:11:14.709Z,73.29
2023-03-01T08:13:44.309Z,72.47
2023-03-01T08:16:17.152Z,71.63
2023-03-01T08:18:44.347Z,70.93
2023-03-01T08:21:15.246Z,71.91
2023-03-01T08:23:42.739Z,71.19
2023-03-01T08:26:19.490Z,71.24
2023-03-01T08:28:48.600Z,70.38
2023-03-01T08:31:20.118Z,69.20
2023-03-01T08:33:55.822Z,69.09
2023-03-01T08:36:35.780Z,69.79
2023-03-01T08:39:02.671Z,69.38
2023-03-01T08:41:30.091Z,69.57
2023-03-01T08:43:59.817Z,68.80
2023-03-01T08:46:37.352Z,67.83
2023-03-01T08:49:35.185Z,68.40
2023-03-01T08:52:03.803Z,68.58
2023-03-01T08:54:30.208Z,67.80
2023-03-01T08:57:04.578Z,67.60
2023-03-01T08:59:31.467Z,67.56
2023-03-01T09:01:57.940Z,67.54
2023-03-01T09:04:24.776Z,65.03
2023-03-01T09:06:52.045Z,64.58
2023-03-01T09:09:18.835Z,64.35
2023-03-01T09:11:47.093Z,62.48
2023-03-01T09:14:15.675Z,61.30
2023-03-01T09:16:43.010Z,59.15
2023-03-01T09:19:13.083Z,59.82
2023-03-01T09:21:41.373Z,58.92
2023-03-01T09:24:15.662Z,58.26
2023-03-01T09:26:43.664Z,56.25
2023-03-01T09:29:15.175Z,55.54
2023-03-01T09:31:42.282Z,55.23
2023-03-01T09:34:10.588Z,53.52
2023-03-01T09:36:40.471Z,53.35
2023-03-01T09:39:10.160Z,53.08
2023-03-01T09:42:01.257Z,51.73
2023-03-01T09:44:44.814Z,51.21
2023-03-01T09:47:22.313Z,49.82
2023-03-01T09:50:30.057Z,50.38
2023-03-01T09:52:57.817Z,49.81
2023-03-01T09:55:38.019Z,50.30
2023-03-01T09:58:32.701Z,50.51
2023-03-01T10:01:11.449Z,50.29
2023-03-01T10:03:56.199Z,50.56
2023-03-01T10:06:34.579Z,50.16
2023-03-01T10:09:18.047Z,49.66
2023-03-01T10:11:51.104Z,49.79
2023-03-01T10:14:45.225Z,49.88
2023-03-01T10:17:32.426Z,50.05
2023-03-01T10:20:22.238Z,49.33
2023-03-01T10:22:54.072Z,48.96
2023-03-01T10:25:41.756Z,48.39
2023-03-01T10:28:43.326Z,48.01
2023-03-01T10:31:19.777Z,46.61
2023-03-01T10:33:48.746Z,46.58
2023-03-01T10:36:20.200Z,45.99
2023-03-01T10:38:55.854Z,45.07
2023-03-01T10:41:31.292Z,46.48
2023-03-01T10:44:03.044Z,46.18
2023-03-01T10:46:38.374Z,46.06
2023-03-01T10:49:19.782Z,46.23
2023-03-01T10:51:52.158Z,46.52
2023-03-01T10:54:22.048Z,45.78
2023-03-01T10:56:58.721Z,45.84
2023-03-01T10:59:30.385Z,43.69
2023-03-01T11:02:24.447Z,44.47
2023-03-01T11:04:59.506Z,42.38
2023-03-01T11:07:26.610Z,40.21
2023-03-01T11:09:54.652Z,43.61
2023-03-01T11:12:22.152Z,44.12
2023-03-01T11:14:58.391Z,43.51
2023-03-01T11:17:31.606Z,42.35
2023-03-01T11:20:16.447Z,41.52
2023-03-01T11:23:10.632Z,40.05
2023-03-01T11:25:41.427Z,40.69
2023-03-01T11:28:13.365Z,39.45
2023-03-01T11:30:53.068Z,39.38
2023-03-01T11:34:06.046Z,41.30
2023-03-01T11:36:39.629Z,38.80
2023-03-01T11:39:34.207Z,38.00
2023-03-01T11:42:41.338Z,36.95
2023-03-01T11:45:12.444Z,36.56
2023-03-01T11:48:04.977Z,37.21
2023-03-01T11:50:44.329Z,37.82
2023-03-01T11:53:20.030Z,38.60
2023-03-01T11:56:10.580Z,38.19
2023-03-01T11:59:00.148Z,37.67
2023-03-01T12:01:55.614Z,36.37
2023-03-01T12:04:53.983Z,36.34
2023-03-01T12:07:42.316Z,35.36
2023-03-01T12:10:24.484Z,35.38
2023-03-01T12:13:39.272Z,34.87
2023-03-01T12:16:37.590Z,35.33
2023-03-01T12:19:15.245Z,34.70
2023-03-01T12:22:00.180Z,34.98
2023-03-01T12:24:54.054Z,35.38
2023-03-01T12:27:52.161Z,35.37
2023-03-01T12:30:29.199Z,34.93
2023-03-01T12:33:02.406Z,34.20
2023-03-01T12:35:50.184Z,35.04
2023-03-01T12:38:39.812Z,35.41
2023-03-01T12:41:28.357Z,35.65
2023-03-01T12:44:16.929Z,34.27
2023-03-01T12:47:16.990Z,34.78
2023-03-01T12:49:58.491Z,35.79
2023-03-01T12:52:50.101Z,36.46
2023-03-01T12:55:35.406Z,36.03
2023-03-01T12:58:47.205Z,36.71
2023-03-01T13:01:28.788Z,36.35
2023-03-01T13:04:04.889Z,35.81
2023-03-01T13:06:50.492Z,35.92
2023-03-01T13:09:44.942Z,35.79
2023-03-01T13:12:49.917Z,36.11
2023-03-01T13:15:43.634Z,36.51
2023-03-01T13:18:22.367Z,36.26
2023-03-01T13:21:29.794Z,35.92
2023-03-01T13:24:20.340Z,37.40
2023-03-01T13:27:31.646Z,37.69
2023-03-01T13:30:23.087Z,38.25
2023-03-01T13:33:25.101Z,37.56
2023-03-01T13:36:32.627Z,36.67
2023-03-01T13:39:53.755Z,38.32
2023-03-01T13:43:05.774Z,38.48
2023-03-01T13:46:14.496Z,39.02
2023-03-01T13:49:46.319Z,37.49
2023-03-01T13:52:51.101Z,38.73
2023-03-01T13:56:12.225Z,38.59
2023-03-01T13:59:43.694Z,37.82
2023-03-01T14:03:12.753Z,38.28
2023-03-01T14:06:49.105Z,37.27
2023-03-01T14:10:21.130Z,37.23
2023-03-01T14:13:50.310Z,38.27
2023-03-01T14:17:10.758Z,38.78
2023-03-01T14:20:22.441Z,38.16
2023-03-01T14:23:28.555Z,39.43
2023-03-01T14:26:43.357Z,39.66
2023-03-01T14:29:49.458Z,39.54
2023-03-01T14:33:10.362Z,39.49
2023-03-01T14:36:43.372Z,39.35
2023-03-01T14:40:10.663Z,39.27
2023-03-01T14:42:47.542Z,39.14
2023-03-01T14:45:54.199Z,38.77
2023-03-01T14:49:20.296Z,39.18
2023-03-01T14:52:28.859Z,39.23
2023-03-01T14:55:38.899Z,39.31
2023-03-01T14:58:54.710Z,39.38
2023-03-01T15:02:14.614Z,39.44
2023-03-01T15:05:25.928Z,39.66
2023-03-01T15:08:48.849Z,39.64
2023-03-01T15:12:00.593Z,39.65
2023-03-01T15:15:16.188Z,39.64
2023-03-01T15:18:24.535Z,39.69
2023-03-01T15:21:18.315Z,39.73
2023-03-01T15:24:30.765Z,39.75
2023-03-01T15:27:08.159Z,39.89
2023-03-01T15:29:42.898Z,39.85
2023-03-01T15:32:51.790Z,39.94
2023-03-01T15:36:23.192Z,40.29
2023-03-01T15:39:45.365Z,40.73
2023-03-01T15:42:39.872Z,41.32
2023-03-01T15:45:35.258Z,41.57
2023-03-01T15:48:31.184Z,41.44
2023-03-01T15:51:18.228Z,42.12
2023-03-01T15:54:01.461Z,42.31
2023-03-01T15:56:44.672Z,42.76
2023-03-01T15:59:36.523Z,42.92
2023-03-01T16:02:25.138Z,43.27
2023-03-01T16:05:00.630Z,43.65
2023-03-01T16:07:52.139Z,43.72
2023-03-01T16:10:59.333Z,44.28
2023-03-01T16:13:37.985Z,44.35
2023-03-01T16:16:05.133Z,44.51
2023-03-01T16:18:42.780Z,45.12
2023-03-01T16:21:34.910Z,45.48
2023-03-01T16:24:09.558Z,45.45
2023-03-01T16:27:00.596Z,45.49
2023-03-01T16:29:49.863Z,45.52
2023-03-01T16:33:30.638Z,45.68
2023-03-01T16:37:03.218Z,46.40
2023-03-01T16:40:32.197Z,46.84
2023-03-01T16:44:07.787Z,47.50
2023-03-01T16:47:57.804Z,47.49
2023-03-01T16:51:25.509Z,47.76
2023-03-01T16:55:11.993Z,48.07
2023-03-01T16:58:40.317Z,48.45
2023-03-01T17:02:31.492Z,48.96
2023-03-01T17:06:16.113Z,48.99
2023-03-01T17:08:47.954Z,49.65
2023-03-01T17:12:14.156Z,49.66
2023-03-01T17:16:00.663Z,50.42
2023-03-01T18:06:36.017Z,54.69
2023-03-01T18:09:21.348Z,54.91
2023-03-01T18:12:11.924Z,55.36
2023-03-01T18:15:20.230Z,55.64
2023-03-01T18:18:21.573Z,55.86
2023-03-01T18:21:34.910Z,55.99
2023-03-01T18:24:15.732Z,55.94
2023-03-01T18:27:42.620Z,56.03
2023-03-01T18:31:24.954Z,56.66
2023-03-01T18:35:11.832Z,57.28
2023-03-01T18:38:58.623Z,56.75
2023-03-01T18:42:36.252Z,57.25
2023-03-01T18:45:24.169Z,57.27
2023-03-01T18:47:53.116Z,57.89
2023-03-01T18:50:21.874Z,57.81
2023-03-01T18:52:54.659Z,57.90
2023-03-01T18:55:21.903Z,58.01
2023-03-01T18:57:50.631Z,58.11
2023-03-01T19:00:18.959Z,58.37
2023-03-01T19:02:48.773Z,58.59
2023-03-01T19:06:16.438Z,58.83
2023-03-01T19:09:36.133Z,59.14
2023-03-01T19:12:19.567Z,59.51
2023-03-01T19:15:07.887Z,59.33
2023-03-01T19:17:55.415Z,59.17
2023-03-01T19:20:22.706Z,59.68
2023-03-01T19:22:50.916Z,59.71
2023-03-01T19:25:19.232Z,59.87
2023-03-01T19:27:49.356Z,60.28
2023-03-01T19:30:16.654Z,60.04
2023-03-01T19:32:43.912Z,60.13
2023-03-01T19:35:14.411Z,60.61
2023-03-01T19:37:49.906Z,60.60
2023-03-01T19:40:18.396Z,60.67
2023-03-01T19:42:46.217Z,60.82
2023-03-01T19:45:14.767Z,60.78
2023-03-01T19:47:48.231Z,60.95
2023-03-01T19:50:16.129Z,61.06
2023-03-01T19:52:43.640Z,60.80
2023-03-01T19:55:13.856Z,61.22
2023-03-01T19:57:44.650Z,61.27
2023-03-01T20:00:13.348Z,61.03
2023-03-01T20:02:40.634Z,61.58
2023-03-01T20:05:09.197Z,61.55
2023-03-01T20:07:36.475Z,61.73
2023-03-01T20:10:03.889Z,61.72
2023-03-01T20:12:33.093Z,61.73
2023-03-01T20:15:00.312Z,62.25
2023-03-01T20:17:30.049Z,62.08
2023-03-01T20:19:59.976Z,62.02
2023-03-01T20:22:28.234Z,62.29
2023-03-01T20:24:55.615Z,62.07
2023-03-01T20:27:23.094Z,62.05
2023-03-01T20:29:50.616Z,62.58
2023-03-01T20:32:18.555Z,62.69
2023-03-01T20:34:45.864Z,62.66
2023-03-01T20:37:13.974Z,62.65
2023-03-01T20:39:40.969Z,62.59
2023-03-01T20:42:08.416Z,62.75
2023-03-01T20:44:35.786Z,62.59
2023-03-01T20:47:03.283Z,63.10
2023-03-01T20:49:30.447Z,63.05
2023-03-01T20:51:57.928Z,63.02
2023-03-01T20:54:28.461Z,63.34
2023-03-01T20:56:56.759Z,63.51
2023-03-01T20:59:27.229Z,63.41
2023-03-01T21:01:54.269Z,63.64
2023-03-01T21:04:22.752Z,63.64
2023-03-01T21:06:50.201Z,64.07
2023-03-01T21:09:18.193Z,63.79
2023-03-01T21:11:45.816Z,64.02
2023-03-01T21:14:13.063Z,64.16
2023-03-01T21:16:41.199Z,64.08
2023-03-01T21:19:09.361Z,64.16
2023-03-01T21:21:37.324Z,64.55
2023-03-01T21:24:05.686Z,64.47
2023-03-01T21:26:35.579Z,64.37
2023-03-01T21:29:03.422Z,64.36
2023-03-01T21:31:36.338Z,64.47
2023-03-01T21:34:07.525Z,64.62
2023-03-01T21:36:37.188Z,64.46
2023-03-01T21:39:06.498Z,64.86
2023-03-01T21:41:36.682Z,64.83
2023-03-01T21:44:06.761Z,64.89
2023-03-01T21:46:39.855Z,64.91
2023-03-01T21:49:09.400Z,64.94
2023-03-01T21:51:37.387Z,65.15
2023-03-01T21:54:04.817Z,65.22
2023-03-01T21:56:39.450Z,65.12
2023-03-01T21:59:11.980Z,64.96
2023-03-01T22:01:40.832Z,65.24
2023-03-01T22:04:08.525Z,65.28
2023-03-01T22:06:41.408Z,65.33
2023-03-01T22:09:17.629Z,65.41
2023-03-01T22:11:47.236Z,65.39
2023-03-01T22:14:14.483Z,65.63
2023-03-01T22:16:45.953Z,65.20
2023-03-01T22:19:16.121Z,65.43
2023-03-01T22:21:45.426Z,65.63
2023-03-01T22:24:15.434Z,65.56
2023-03-01T22:26:59.605Z,65.44
2023-03-01T22:29:31.504Z,65.56
2023-03-01T22:32:00.174Z,65.93
2023-03-01T22:34:33.540Z,65.37
2023-03-01T22:37:01.527Z,65.61
2023-03-01T22:39:28.867Z,65.53
2023-03-01T22:41:56.699Z,65.54
2023-03-01T22:44:26.294Z,65.74
2023-03-01T22:46:53.787Z,65.97
2023-03-01T22:49:22.587Z,65.92
2023-03-01T22:51:51.310Z,66.13
2023-03-01T22:54:19.803Z,65.87
2023-03-01T22:56:48.283Z,65.98
2023-03-01T22:59:19.484Z,66.10
2023-03-01T23:01:48.106Z,65.93
2023-03-01T23:04:20.432Z,66.06
2023-03-01T23:06:52.306Z,66.05
2023-03-01T23:09:27.252Z,65.92
2023-03-01T23:11:57.085Z,66.06
2023-03-01T23:14:26.338Z,66.07
2023-03-01T23:16:54.973Z,66.13
2023-03-01T23:19:22.519Z,66.16
2023-03-01T23:21:50.740Z,66.25
2023-03-01T23:24:20.772Z,66.31
2023-03-01T23:26:53.908Z,66.44
2023-03-01T23:29:41.496Z,66.35
2023-03-01T23:32:10.012Z,66.34
2023-03-01T23:34:37.980Z,66.38
2023-03-01T23:37:07.606Z,66.52
2023-03-01T23:39:34.692Z,66.59
2023-03-01T23:42:03.070Z,66.52
2023-03-01T23:44:30.590Z,66.59
2023-03-01T23:46:57.483Z,66.80
2023-03-01T23:49:25.540Z,66.57
2023-03-01T23:51:53.469Z,66.74
2023-03-01T23:54:23.901Z,66.97
2023-03-01T23:56:54.200Z,66.63
2023-03-01T23:59:24.161Z,66.73
